createdAt,value
2022-12-05T00:01:28.568Z,7.40
2022-12-05T00:03:58.679Z,5.47
2022-12-05T00:06:27.431Z,7.38
2022-12-05T00:08:55.257Z,6.00
2022-12-05T00:11:26.151Z,7.53
2022-12-05T00:13:55.341Z,5.88
2022-12-05T00:16:25.298Z,5.55
2022-12-05T00:18:53.150Z,5.78
2022-12-05T00:21:22.880Z,6.43
2022-12-05T00:23:51.033Z,5.85
2022-12-05T00:26:18.090Z,6.45
2022-12-05T00:28:45.387Z,6.38
2022-12-05T00:31:17.103Z,5.30
2022-12-05T00:33:44.974Z,6.53
2022-12-05T00:36:18.904Z,6.40
2022-12-05T00:38:45.951Z,5.53
2022-12-05T00:41:16.109Z,6.68
2022-12-05T00:43:44.074Z,6.47
2022-12-05T00:46:24.339Z,5.80
2022-12-05T00:48:53.957Z,6.57
2022-12-05T00:51:23.949Z,6.95
2022-12-05T00:53:51.154Z,6.70
2022-12-05T00:56:22.080Z,6.97
2022-12-05T00:58:51.351Z,6.82
2022-12-05T01:01:23.104Z,6.75
2022-12-05T01:03:53.142Z,6.07
2022-12-05T01:06:21.721Z,6.13
2022-12-05T01:08:49.829Z,7.32
2022-12-05T01:11:18.998Z,6.18
2022-12-05T01:13:46.700Z,7.35
2022-12-05T01:16:23.256Z,6.65
2022-12-05T01:18:51.246Z,6.68
2022-12-05T01:21:19.115Z,6.78
2022-12-05T01:23:46.400Z,7.53
2022-12-05T01:26:15.892Z,6.97
2022-12-05T01:28:43.099Z,8.02
2022-12-05T01:31:25.128Z,7.55
2022-12-05T01:33:53.989Z,6.70
2022-12-05T01:36:22.534Z,7.28
2022-12-05T01:38:50.001Z,6.65
2022-12-05T01:41:19.721Z,6.68
2022-12-05T01:44:08.033Z,6.53
2022-12-05T01:46:44.250Z,6.57
2022-12-05T01:49:16.431Z,6.80
2022-12-05T01:51:47.383Z,7.72
2022-12-05T01:54:16.298Z,7.10
2022-12-05T01:56:49.890Z,6.07
2022-12-05T01:59:19.030Z,6.85
2022-12-05T02:01:46.148Z,6.20
2022-12-05T02:04:14.006Z,8.07
2022-12-05T02:06:41.327Z,7.68
2022-12-05T02:09:08.374Z,7.10
2022-12-05T02:11:41.966Z,9.00
2022-12-05T02:14:45.196Z,6.93
2022-12-05T02:17:52.630Z,6.07
2022-12-05T02:20:41.897Z,7.88
2022-12-05T02:23:40.652Z,7.00
2022-12-05T02:26:47.118Z,6.85
2022-12-05T02:29:49.083Z,6.65
2022-12-05T02:32:41.310Z,7.55
2022-12-05T02:35:34.467Z,8.43
2022-12-05T02:38:28.383Z,8.02
2022-12-05T02:41:34.959Z,7.35
2022-12-05T02:44:08.076Z,6.97
2022-12-05T02:46:39.266Z,5.53
2022-12-05T02:49:10.490Z,6.35
2022-12-05T02:51:46.503Z,5.60
2022-12-05T02:54:19.809Z,6.70
2022-12-05T02:56:48.408Z,7.15
2022-12-05T02:59:21.479Z,6.82
2022-12-05T03:01:51.534Z,6.30
2022-12-05T03:04:21.824Z,6.30
2022-12-05T03:07:03.592Z,5.65
2022-12-05T03:09:39.790Z,6.57
2022-12-05T03:12:26.838Z,7.70
2022-12-05T03:15:09.729Z,7.15
2022-12-05T03:17:57.227Z,6.40
2022-12-05T03:20:32.312Z,6.50
2022-12-05T03:23:05.520Z,6.45
2022-12-05T03:25:52.963Z,6.85
2022-12-05T03:28:37.322Z,6.85
2022-12-05T03:31:09.408Z,5.88
2022-12-05T03:33:42.830Z,4.97
2022-12-05T03:36:23.599Z,6.85
2022-12-05T03:39:06.536Z,9.65
2022-12-05T03:41:45.699Z,5.30
2022-12-05T03:44:22.145Z,6.15
2022-12-05T03:47:05.933Z,6.40
2022-12-05T03:49:47.994Z,5.85
2022-12-05T03:52:51.054Z,5.50
2022-12-05T03:55:26.748Z,6.97
2022-12-05T03:58:02.494Z,5.13
2022-12-05T04:00:34.673Z,6.85
2022-12-05T04:03:09.281Z,6.60
2022-12-05T04:05:48.507Z,5.10
2022-12-05T04:08:30.983Z,4.57
2022-12-05T04:11:03.138Z,7.80
2022-12-05T04:13:40.940Z,4.22
2022-12-05T04:16:37.031Z,5.95
2022-12-05T04:19:26.470Z,6.28
2022-12-05T04:21:56.276Z,5.47
2022-12-05T04:24:50.488Z,5.50
2022-12-05T04:27:52.566Z,5.85
2022-12-05T04:30:37.311Z,6.03
2022-12-05T04:33:17.488Z,4.45
2022-12-05T04:36:08.652Z,5.10
2022-12-05T04:38:50.539Z,5.53
2022-12-05T04:41:28.803Z,5.30
2022-12-05T04:43:59.549Z,4.68
2022-12-05T04:46:26.643Z,5.53
2022-12-05T04:48:59.057Z,5.03
2022-12-05T04:51:30.069Z,5.25
2022-12-05T04:54:05.127Z,6.82
2022-12-05T04:56:36.848Z,5.93
2022-12-05T04:59:04.594Z,6.25
2022-12-05T05:01:37.855Z,4.18
2022-12-05T05:04:30.902Z,5.18
2022-12-05T05:06:58.062Z,5.15
2022-12-05T05:09:25.324Z,4.85
2022-12-05T05:11:52.445Z,5.05
2022-12-05T05:14:19.457Z,4.25
2022-12-05T05:16:47.581Z,6.05
2022-12-05T05:19:14.745Z,5.53
2022-12-05T05:21:43.423Z,4.05
2022-12-05T05:24:12.008Z,5.18
2022-12-05T05:26:41.219Z,5.28
2022-12-05T05:29:09.736Z,4.20
2022-12-05T05:31:37.962Z,5.00
2022-12-05T05:34:09.407Z,5.72
2022-12-05T05:36:37.950Z,7.45
2022-12-05T05:39:06.994Z,7.38
2022-12-05T05:41:36.379Z,9.52
2022-12-05T05:44:04.579Z,9.15
2022-12-05T05:46:33.897Z,8.80
2022-12-05T05:49:01.034Z,12.32
2022-12-05T05:51:29.554Z,9.15
2022-12-05T05:53:58.654Z,9.70
2022-12-05T05:56:25.911Z,9.30
2022-12-05T05:58:58.296Z,8.25
2022-12-05T06:01:25.324Z,8.00
2022-12-05T06:03:52.763Z,10.50
2022-12-05T06:06:21.565Z,7.65
2022-12-05T06:08:48.910Z,10.38
2022-12-05T06:11:26.157Z,10.93
2022-12-05T06:13:56.239Z,10.35
2022-12-05T06:16:23.362Z,13.43
2022-12-05T06:18:51.568Z,12.43
2022-12-05T06:21:18.603Z,13.00
2022-12-05T06:23:45.923Z,14.50
2022-12-05T06:26:16.503Z,14.77
2022-12-05T06:31:13.562Z,14.77
2022-12-05T06:33:42.104Z,14.65
2022-12-05T06:36:12.523Z,20.30
2022-12-05T06:38:42.222Z,13.30
2022-12-05T06:41:12.251Z,16.08
2022-12-05T06:43:39.382Z,15.93
2022-12-05T06:46:08.092Z,18.23
2022-12-05T06:48:35.809Z,16.05
2022-12-05T06:51:02.880Z,17.80
2022-12-05T06:53:30.153Z,15.40
2022-12-05T06:56:03.723Z,20.73
2022-12-05T06:58:31.098Z,18.10
2022-12-05T07:01:18.148Z,16.48
2022-12-05T07:03:45.308Z,16.30
2022-12-05T07:06:12.441Z,18.25
2022-12-05T07:08:39.480Z,18.65
2022-12-05T07:11:06.599Z,15.23
2022-12-05T07:13:33.779Z,20.45
2022-12-05T07:16:01.224Z,26.27
2022-12-05T07:18:29.155Z,20.35
2022-12-05T07:21:14.325Z,21.30
2022-12-05T07:23:43.893Z,21.25
2022-12-05T07:26:15.684Z,20.08
2022-12-05T07:28:43.826Z,19.98
2022-12-05T07:31:22.231Z,21.25
2022-12-05T07:33:50.255Z,19.88
2022-12-05T07:36:20.524Z,17.45
2022-12-05T07:38:48.483Z,17.30
2022-12-05T07:41:21.855Z,17.45
2022-12-05T07:43:50.823Z,17.85
2022-12-05T07:46:18.278Z,20.33
2022-12-05T07:48:45.787Z,16.63
2022-12-05T07:51:12.835Z,21.40
2022-12-05T07:53:43.016Z,19.98
2022-12-05T07:58:38.502Z,15.98
2022-12-05T08:01:10.949Z,20.00
2022-12-05T08:03:38.641Z,17.42
2022-12-05T08:06:10.190Z,17.40
2022-12-05T08:08:37.962Z,17.17
2022-12-05T08:11:08.315Z,16.83
2022-12-05T08:13:35.631Z,18.50
2022-12-05T08:16:04.836Z,19.27
2022-12-05T08:18:32.524Z,20.73
2022-12-05T08:21:19.499Z,17.88
2022-12-05T08:23:47.492Z,17.85
2022-12-05T08:26:21.401Z,16.27
2022-12-05T08:28:53.824Z,17.33
2022-12-05T08:31:24.438Z,23.85
2022-12-05T08:33:58.781Z,16.52
2022-12-05T08:36:29.199Z,22.83
2022-12-05T08:38:58.070Z,22.23
2022-12-05T08:41:29.250Z,20.42
2022-12-05T08:43:58.270Z,19.90
2022-12-05T08:46:25.705Z,20.00
2022-12-05T08:48:52.976Z,19.95
2022-12-05T08:51:20.016Z,18.65
2022-12-05T08:53:47.213Z,17.65
2022-12-05T08:56:14.466Z,19.45
2022-12-05T08:58:42.390Z,20.88
2022-12-05T09:01:12.658Z,20.70
2022-12-05T09:03:47.310Z,21.75
2022-12-05T09:06:20.988Z,19.77
2022-12-05T09:08:48.603Z,19.17
2022-12-05T09:11:24.013Z,18.05
2022-12-05T09:13:53.576Z,18.92
2022-12-05T09:16:23.297Z,19.83
2022-12-05T09:18:52.386Z,17.58
2022-12-05T09:21:22.528Z,20.33
2022-12-05T09:23:50.502Z,19.23
2022-12-05T09:26:20.039Z,20.05
2022-12-05T09:28:47.564Z,20.90
2022-12-05T09:31:17.748Z,20.38
2022-12-05T09:33:45.651Z,18.25
2022-12-05T09:36:16.720Z,21.88
2022-12-05T09:38:44.303Z,21.70
2022-12-05T09:42:04.510Z,18.77
2022-12-05T09:45:12.762Z,20.67
2022-12-05T09:47:58.280Z,22.38
2022-12-05T09:50:40.247Z,20.73
2022-12-05T09:53:29.154Z,19.77
2022-12-05T09:56:28.580Z,17.25
2022-12-05T09:58:57.621Z,22.25
2022-12-05T10:01:42.585Z,20.08
2022-12-05T10:04:40.222Z,17.85
2022-12-05T10:07:31.987Z,20.58
2022-12-05T10:10:38.794Z,19.45
2022-12-05T10:13:33.154Z,19.23
2022-12-05T10:16:07.522Z,19.10
2022-12-05T10:18:43.871Z,20.70
2022-12-05T10:21:18.684Z,20.52
2022-12-05T10:23:59.697Z,21.20
2022-12-05T10:26:46.753Z,17.33
2022-12-05T10:29:44.434Z,17.10
2022-12-05T10:32:19.040Z,17.75
2022-12-05T10:34:46.570Z,18.95
2022-12-05T10:37:19.678Z,18.60
2022-12-05T10:39:48.885Z,18.67
2022-12-05T10:42:23.511Z,16.40
2022-12-05T10:44:57.377Z,18.60
2022-12-05T10:47:24.919Z,24.98
2022-12-05T10:49:54.382Z,19.30
2022-12-05T10:52:21.430Z,19.23
2022-12-05T10:54:56.340Z,23.65
2022-12-05T10:57:26.669Z,25.00
2022-12-05T10:59:56.634Z,25.63
2022-12-05T11:02:33.898Z,22.08
2022-12-05T11:05:01.341Z,23.23
2022-12-05T11:07:35.515Z,23.25
2022-12-05T11:10:23.578Z,20.63
2022-12-05T11:12:55.141Z,21.73
2022-12-05T11:15:25.895Z,24.20
2022-12-05T11:17:54.838Z,20.58
2022-12-05T11:20:36.035Z,24.48
2022-12-05T11:23:24.228Z,23.25
2022-12-05T11:25:51.715Z,22.05
2022-12-05T11:28:34.442Z,24.15
2022-12-05T11:31:25.612Z,27.25
2022-12-05T11:34:21.503Z,19.92
2022-12-05T11:36:58.144Z,23.42
2022-12-05T11:39:26.134Z,25.30
2022-12-05T11:42:33.734Z,26.77
2022-12-05T11:45:39.662Z,22.75
2022-12-05T11:48:27.625Z,22.92
2022-12-05T11:51:21.778Z,24.38
2022-12-05T11:55:02.952Z,21.63
2022-12-05T11:57:54.237Z,21.38
2022-12-05T12:00:55.457Z,28.67
2022-12-05T12:04:02.191Z,22.58
2022-12-05T12:06:53.612Z,24.67
2022-12-05T12:09:35.106Z,24.15
2022-12-05T12:12:22.972Z,25.02
2022-12-05T12:15:28.414Z,23.60
2022-12-05T12:18:21.038Z,24.40
2022-12-05T12:21:20.840Z,27.02
2022-12-05T12:24:17.368Z,24.88
2022-12-05T12:27:09.545Z,28.23
2022-12-05T12:30:13.759Z,25.52
2022-12-05T12:33:12.230Z,28.63
2022-12-05T12:35:55.853Z,26.90
2022-12-05T12:38:53.490Z,25.58
2022-12-05T12:41:47.020Z,26.63
2022-12-05T12:44:49.751Z,26.48
2022-12-05T12:47:44.032Z,28.13
2022-12-05T12:50:23.974Z,25.48
2022-12-05T12:53:30.783Z,24.45
2022-12-05T12:56:29.274Z,28.27
2022-12-05T12:59:21.492Z,26.52
2022-12-05T13:02:03.167Z,25.08
2022-12-05T13:04:40.445Z,26.58
2022-12-05T13:07:33.877Z,23.88
2022-12-05T13:10:11.982Z,26.60
2022-12-05T13:12:41.487Z,25.73
2022-12-05T13:15:16.274Z,23.73
2022-12-05T13:17:46.969Z,28.23
2022-12-05T13:20:20.699Z,27.15
2022-12-05T13:22:52.502Z,27.48
2022-12-05T13:25:26.028Z,25.50
2022-12-05T13:28:00.351Z,25.50
2022-12-05T13:30:28.518Z,25.73
2022-12-05T13:32:58.421Z,23.73
2022-12-05T13:35:52.712Z,25.33
2022-12-05T13:38:50.437Z,25.08
2022-12-05T13:41:37.606Z,27.27
2022-12-05T13:44:12.592Z,29.23
2022-12-05T13:46:42.559Z,25.33
2022-12-05T13:49:31.300Z,29.23
2022-12-05T13:52:08.414Z,26.08
2022-12-05T13:54:44.402Z,24.40
2022-12-05T13:57:46.237Z,25.10
2022-12-05T14:00:34.997Z,22.92
2022-12-05T14:03:05.680Z,22.75
2022-12-05T14:05:39.502Z,20.45
2022-12-05T14:08:45.343Z,28.90
2022-12-05T14:11:12.870Z,22.48
2022-12-05T14:13:42.765Z,23.92
2022-12-05T14:16:42.281Z,22.58
2022-12-05T14:19:39.717Z,23.10
2022-12-05T14:22:39.649Z,27.10
2022-12-05T14:25:27.272Z,24.13
2022-12-05T14:28:13.604Z,24.50
2022-12-05T14:31:20.420Z,24.48
2022-12-05T14:34:25.205Z,23.63
2022-12-05T14:37:00.838Z,26.77
2022-12-05T14:39:37.833Z,21.17
2022-12-05T14:42:19.982Z,22.38
2022-12-05T14:44:49.128Z,21.15
2022-12-05T14:47:23.167Z,22.27
2022-12-05T14:50:02.422Z,22.90
2022-12-05T14:52:31.417Z,23.55
2022-12-05T14:55:09.103Z,22.50
2022-12-05T14:57:47.718Z,24.60
2022-12-05T15:00:22.914Z,21.38
2022-12-05T15:02:53.029Z,24.77
2022-12-05T15:05:28.542Z,24.30
2022-12-05T15:07:57.763Z,21.55
2022-12-05T15:10:33.340Z,21.25
2022-12-05T15:13:05.557Z,22.10
2022-12-05T15:15:44.403Z,21.52
2022-12-05T15:18:45.542Z,23.33
2022-12-05T15:21:39.142Z,22.60
2022-12-05T15:24:16.100Z,21.40
2022-12-05T15:26:50.430Z,26.83
2022-12-05T15:29:28.121Z,23.80
2022-12-05T15:32:17.747Z,24.02
2022-12-05T15:35:02.116Z,21.17
2022-12-05T15:37:48.638Z,21.33
2022-12-05T15:40:20.808Z,20.13
2022-12-05T15:42:51.537Z,19.98
2022-12-05T15:45:27.715Z,23.95
2022-12-05T15:47:57.749Z,17.15
2022-12-05T15:50:35.081Z,17.75
2022-12-05T15:53:28.352Z,21.85
2022-12-05T15:56:16.782Z,21.77
2022-12-05T15:59:16.327Z,20.63
2022-12-05T16:01:52.663Z,23.53
2022-12-05T16:04:45.655Z,24.00
2022-12-05T16:07:15.020Z,19.52
2022-12-05T16:09:44.501Z,22.58
2022-12-05T16:12:37.715Z,21.60
2022-12-05T16:15:18.402Z,21.48
2022-12-05T16:17:53.122Z,22.92
2022-12-05T16:20:24.610Z,26.33
2022-12-05T16:22:55.266Z,26.50
2022-12-05T16:25:28.755Z,25.42
2022-12-05T16:28:02.446Z,28.83
2022-12-05T16:30:30.854Z,20.45
2022-12-05T16:33:17.736Z,24.00
2022-12-05T16:35:46.236Z,24.00
2022-12-05T16:38:31.994Z,24.42
2022-12-05T16:41:01.549Z,21.67
2022-12-05T16:43:45.414Z,21.83
2022-12-05T16:46:42.054Z,35.63
2022-12-05T16:49:33.877Z,23.75
2022-12-05T16:52:14.535Z,22.40
2022-12-05T16:54:42.796Z,25.92
2022-12-05T16:57:14.129Z,24.63
2022-12-05T16:59:43.714Z,23.95
2022-12-05T17:02:17.530Z,24.25
2022-12-05T17:04:46.813Z,28.23
2022-12-05T17:07:14.710Z,19.92
2022-12-05T17:09:41.679Z,28.50
2022-12-05T17:12:18.430Z,24.52
2022-12-05T17:14:47.250Z,27.00
2022-12-05T17:17:16.096Z,28.70
2022-12-05T17:19:43.176Z,20.88
2022-12-05T17:22:12.249Z,27.42
2022-12-05T17:24:39.306Z,30.65
2022-12-05T17:27:10.434Z,29.42
2022-12-05T17:29:37.611Z,27.15
2022-12-05T17:32:05.123Z,28.52
2022-12-05T17:34:32.108Z,27.58
2022-12-05T17:37:00.402Z,29.83
2022-12-05T17:39:28.751Z,30.75
2022-12-05T17:41:56.331Z,32.67
2022-12-05T17:44:23.576Z,28.77
2022-12-05T17:46:50.697Z,29.33
2022-12-05T17:49:18.488Z,32.20
2022-12-05T17:52:13.369Z,26.38
2022-12-05T17:54:32.751Z,30.00
2022-12-05T17:56:59.756Z,33.00
2022-12-05T17:59:26.797Z,30.38
2022-12-05T18:01:53.872Z,30.23
2022-12-05T18:04:23.369Z,36.97
2022-12-05T18:06:51.084Z,29.42
2022-12-05T18:09:18.559Z,33.60
2022-12-05T18:11:45.585Z,33.08
2022-12-05T18:14:12.728Z,31.85
2022-12-05T18:16:39.822Z,33.25
2022-12-05T18:19:08.666Z,35.60
2022-12-05T18:21:35.872Z,31.48
2022-12-05T18:24:03.323Z,32.88
2022-12-05T18:26:31.532Z,33.08
2022-12-05T18:28:59.473Z,36.15
2022-12-05T18:31:26.601Z,29.38
2022-12-05T18:33:53.727Z,35.35
2022-12-05T18:36:21.576Z,33.13
2022-12-05T18:38:55.040Z,33.95
2022-12-05T18:41:27.378Z,33.80
2022-12-05T18:43:54.471Z,30.92
2022-12-05T18:46:21.714Z,37.20
2022-12-05T18:48:49.084Z,35.25
2022-12-05T18:51:19.326Z,31.48
2022-12-05T18:53:52.518Z,32.90
2022-12-05T18:56:26.489Z,32.00
2022-12-05T18:58:57.629Z,34.58
2022-12-05T19:01:25.888Z,32.90
2022-12-05T19:03:53.342Z,32.67
2022-12-05T19:06:23.095Z,29.35
2022-12-05T19:08:54.405Z,28.92
2022-12-05T19:11:21.980Z,29.27
2022-12-05T19:13:49.279Z,29.58
2022-12-05T19:16:18.639Z,33.28
2022-12-05T19:18:46.787Z,30.42
2022-12-05T19:21:14.309Z,29.73
2022-12-05T19:23:41.539Z,27.17
2022-12-05T19:26:09.780Z,30.58
2022-12-05T19:28:37.934Z,29.67
2022-12-05T19:31:08.129Z,25.83
2022-12-05T19:33:37.950Z,29.90
2022-12-05T19:36:08.523Z,29.88
2022-12-05T19:38:36.099Z,27.85
2022-12-05T19:41:04.456Z,28.33
2022-12-05T19:43:33.984Z,27.65
2022-12-05T19:46:11.312Z,28.47
2022-12-05T19:48:39.250Z,28.10
2022-12-05T19:51:07.490Z,28.55
2022-12-05T19:53:37.313Z,26.55
2022-12-05T19:56:08.849Z,29.13
2022-12-05T19:58:36.711Z,26.23
2022-12-05T20:01:10.222Z,26.33
2022-12-05T20:03:37.599Z,25.05
2022-12-05T20:06:05.759Z,25.98
2022-12-05T20:08:34.506Z,24.20
2022-12-05T20:11:07.291Z,25.17
2022-12-05T20:13:52.007Z,25.77
2022-12-05T20:16:21.768Z,25.00
2022-12-05T20:18:50.372Z,27.45
2022-12-05T20:21:22.042Z,24.48
2022-12-05T20:23:49.918Z,27.70
2022-12-05T20:26:19.999Z,27.63
2022-12-05T20:28:47.840Z,23.42
2022-12-05T20:31:23.593Z,23.40
2022-12-05T20:33:53.021Z,26.25
2022-12-05T20:36:26.075Z,25.80
2022-12-05T20:38:59.027Z,25.08
2022-12-05T20:41:27.562Z,24.15
2022-12-05T20:43:58.230Z,21.95
2022-12-05T20:46:26.030Z,24.85
2022-12-05T20:48:53.647Z,25.67
2022-12-05T20:51:24.127Z,26.80
2022-12-05T20:56:25.414Z,23.90
2022-12-05T20:58:55.969Z,25.55
2022-12-05T21:03:52.454Z,22.15
2022-12-05T21:06:25.314Z,22.67
2022-12-05T21:08:53.142Z,22.48
2022-12-05T21:11:20.826Z,23.73
2022-12-05T21:13:48.246Z,23.33
2022-12-05T21:16:18.734Z,24.00
2022-12-05T21:21:22.404Z,24.27
2022-12-05T21:23:55.079Z,22.25
2022-12-05T21:26:23.127Z,22.60
2022-12-05T21:28:50.323Z,26.08
2022-12-05T21:31:21.836Z,22.60
2022-12-05T21:34:01.311Z,23.45
2022-12-05T21:36:30.493Z,23.85
2022-12-05T21:38:57.566Z,21.08
2022-12-05T21:41:26.077Z,25.45
2022-12-05T21:43:55.285Z,22.80
2022-12-05T21:46:24.029Z,22.20
2022-12-05T21:48:51.278Z,23.92
2022-12-05T21:51:18.348Z,20.50
2022-12-05T21:53:45.441Z,22.98
2022-12-05T21:56:15.815Z,23.25
2022-12-05T22:01:17.516Z,22.20
2022-12-05T22:03:44.924Z,24.02
2022-12-05T22:06:14.778Z,22.30
2022-12-05T22:08:41.801Z,22.88
2022-12-05T22:11:24.038Z,22.45
2022-12-05T22:13:51.808Z,27.80
2022-12-05T22:16:19.833Z,23.25
2022-12-05T22:18:47.494Z,23.73
2022-12-05T22:21:17.109Z,22.35
2022-12-05T22:23:44.346Z,22.47
2022-12-05T22:26:14.546Z,21.70
2022-12-05T22:28:41.635Z,21.00
2022-12-05T22:31:12.904Z,20.73
2022-12-05T22:33:42.120Z,23.95
2022-12-05T22:36:11.639Z,21.17
2022-12-05T22:38:42.863Z,20.60
2022-12-05T22:41:23.438Z,22.08
2022-12-05T22:48:49.893Z,20.45
2022-12-05T22:51:18.800Z,19.77
2022-12-05T22:53:46.259Z,19.85
2022-12-05T22:56:15.687Z,21.10
2022-12-05T22:58:43.547Z,18.73
2022-12-05T23:01:16.832Z,22.02
2022-12-05T23:03:45.330Z,18.85
2022-12-05T23:06:13.944Z,20.83
2022-12-05T23:08:42.638Z,20.67
2022-12-05T23:11:11.195Z,16.90
2022-12-05T23:13:38.770Z,19.80
2022-12-05T23:16:21.432Z,20.55
2022-12-05T23:18:50.535Z,20.67
2022-12-05T23:21:21.224Z,19.05
2022-12-05T23:23:51.644Z,19.92
2022-12-05T23:26:20.116Z,19.33
2022-12-05T23:28:47.376Z,19.13
2022-12-05T23:31:14.626Z,19.13
2022-12-05T23:33:42.180Z,18.02
2022-12-05T23:36:10.529Z,17.30
2022-12-05T23:38:39.099Z,18.50
2022-12-05T23:41:19.083Z,18.45
2022-12-05T23:43:47.420Z,19.90
2022-12-05T23:46:16.126Z,17.80
2022-12-05T23:48:43.491Z,17.10
2022-12-05T23:51:13.442Z,17.15
2022-12-05T23:53:42.490Z,17.40
2022-12-05T23:56:14.029Z,15.18
2022-12-05T23:58:41.183Z,17.90
